Time;durP1;ratioP1;P1;durP2;ratioP2;P2;SDS_P1;SDS_P2;PMS_P1;PMS_P2;Temp;Humidity;BMP_temperature;BMP_pressure;BME280_temperature;BME280_humidity;BME280_pressure;Samples;Min_cycle;Max_cycle;Signal;HPM_P1;HPM_P2
2023/01/28 10:08:18;;;;;;;1999.90;999.90;;;;;;;2.25;86.02;103098.50;10737299;22;20048;-65
2023/01/28 10:13:39;;;;;;;1999.90;999.90;;;;;;;2.44;85.31;103104.78;10494946;28;20053;-65
2023/01/28 10:19:00;;;;;;;1999.90;999.90;;;;;;;2.65;85.43;103102.47;10496624;28;20110;-65
2023/01/28 10:29:23;;;;;;;1999.90;999.90;;;;;;;2.20;85.88;103095.84;10619822;23;20104;-63
2023/01/28 10:34:26;;;;;;;1999.90;999.90;;;;;;;2.90;86.22;103103.66;10436473;28;20053;-63
2023/01/28 10:39:29;;;;;;;1999.90;999.90;;;;;;;2.77;84.64;103096.59;10437991;28;20061;-63
2023/01/28 10:44:37;;;;;;;1999.90;999.90;;;;;;;2.82;85.06;103100.09;10439728;28;20558;-62
2023/01/28 10:49:43;;;;;;;1999.90;999.90;;;;;;;2.77;82.98;103094.00;10417077;28;20076;-63
2023/01/28 10:54:45;;;;;;;1999.90;999.90;;;;;;;3.02;84.03;103069.28;10416079;28;20054;-63
2023/01/28 10:59:49;;;;;;;1999.90;999.90;;;;;;;2.89;83.61;103067.41;10403037;28;20049;-62
2023/01/28 11:05:16;;;;;;;1999.90;999.90;;;;;;;3.32;82.00;103050.56;10411494;28;20051;-63
2023/01/28 11:10:33;;;;;;;1999.90;999.90;;;;;;;3.49;82.18;103048.13;10392193;28;20057;-63
2023/01/28 11:15:50;;;;;;;1999.90;999.90;;;;;;;3.46;80.92;103032.59;10408664;28;20053;-63
2023/01/28 11:21:04;;;;;;;1999.90;999.90;;;;;;;3.53;79.93;103028.28;10435691;28;20067;-63
2023/01/28 11:26:23;;;;;;;1999.90;999.90;;;;;;;3.72;80.82;103040.53;10368936;28;20065;-62
2023/01/28 11:31:26;;;;;;;1999.90;999.90;;;;;;;4.11;81.38;103026.97;10359827;28;20053;-62
2023/01/28 11:36:30;;;;;;;1999.90;999.90;;;;;;;4.33;81.78;103020.16;10374283;28;20050;-62
2023/01/28 11:41:35;;;;;;;1999.90;999.90;;;;;;;3.84;78.26;103002.63;10374347;28;20058;-62
2023/01/28 11:46:58;;;;;;;1999.90;999.90;;;;;;;3.87;77.63;102972.41;10372376;28;20500;-63
2023/01/28 11:52:13;;;;;;;1999.90;999.90;;;;;;;3.74;78.91;102961.97;10374361;28;20064;-63
2023/01/28 11:57:34;;;;;;;1999.90;999.90;;;;;;;2.95;79.69;102941.53;10424822;28;20091;-63
2023/01/28 12:02:46;;;;;;;1999.90;999.90;;;;;;;3.00;79.26;102941.56;10457854;28;20404;-63
2023/01/28 12:08:26;;;;;;;1999.90;999.90;;;;;;;3.43;78.18;102941.91;10459041;28;20085;-62
2023/01/28 12:13:41;;;;;;;1999.90;999.90;;;;;;;4.51;76.89;102954.50;10459407;28;20057;-63
2023/01/28 12:18:46;;;;;;;1999.90;999.90;;;;;;;3.31;77.80;102949.56;10460388;28;20049;-62
2023/01/28 12:23:51;;;;;;;1999.90;999.90;;;;;;;4.33;78.25;102968.28;10435369;28;20396;-63
2023/01/28 12:29:17;;;;;;;1999.90;999.90;;;;;;;4.46;77.50;102975.25;10457597;28;20049;-63
2023/01/28 12:34:43;;;;;;;1999.90;999.90;;;;;;;4.70;77.98;102971.84;10448352;28;20056;-63
2023/01/28 12:40:15;;;;;;;1999.90;999.90;;;;;;;4.55;76.65;102977.84;10456687;28;20061;-63
2023/01/28 12:45:44;;;;;;;1999.90;999.90;;;;;;;4.87;78.43;102965.81;10416414;28;20096;-62
2023/01/28 12:50:51;;;;;;;1999.90;999.90;;;;;;;4.67;78.20;102963.19;10450988;28;20107;-63
2023/01/28 12:56:24;;;;;;;1999.90;999.90;;;;;;;4.25;76.37;102976.91;10450912;28;20049;-62
2023/01/28 13:01:46;;;;;;;1999.90;999.90;;;;;;;4.36;77.02;102969.16;10432612;28;20458;-62
2023/01/28 13:07:05;;;;;;;1999.90;999.90;;;;;;;4.89;78.10;102974.47;10454395;28;20115;-62
2023/01/28 13:12:11;;;;;;;1999.90;999.90;;;;;;;4.86;78.70;102967.56;10456799;28;20115;-62
2023/01/28 13:17:31;;;;;;;1999.90;999.90;;;;;;;4.81;75.31;102967.53;10456413;28;20084;-62
2023/01/28 13:22:36;;;;;;;1999.90;999.90;;;;;;;4.72;75.94;102951.09;10453098;28;20459;-62
2023/01/28 13:27:38;;;;;;;1999.90;999.90;;;;;;;5.01;74.75;102957.19;10455467;28;20048;-62
2023/01/28 13:32:41;;;;;;;1999.90;999.90;;;;;;;4.96;76.09;102943.34;10454336;28;20443;-62
2023/01/28 13:37:47;;;;;;;1999.90;999.90;;;;;;;4.68;74.87;102933.78;10454903;28;20048;-62
2023/01/28 13:43:04;;;;;;;1999.90;999.90;;;;;;;4.51;77.05;102918.19;10451514;28;20053;-62
2023/01/28 13:48:22;;;;;;;1999.90;999.90;;;;;;;4.26;77.30;102887.00;10434124;28;20095;-62
2023/01/28 13:53:33;;;;;;;1999.90;999.90;;;;;;;3.63;78.75;102871.22;10454920;28;20056;-62
2023/01/28 13:59:00;;;;;;;1999.90;999.90;;;;;;;4.09;77.91;102871.41;10437684;28;20052;-62
2023/01/28 14:04:23;;;;;;;1999.90;999.90;;;;;;;4.86;75.12;102897.47;10455661;28;20478;-62
2023/01/28 14:09:50;;;;;;;1999.90;999.90;;;;;;;3.67;79.23;102902.34;10456300;28;20048;-63
2023/01/28 14:15:29;;;;;;;1999.90;999.90;;;;;;;3.67;79.98;102920.47;10438790;28;20084;-63
2023/01/28 14:20:44;;;;;;;1999.90;999.90;;;;;;;3.42;77.09;102929.81;10456319;28;20129;-63
2023/01/28 14:25:47;;;;;;;1999.90;999.90;;;;;;;3.99;77.53;102919.75;10455981;28;20483;-63
2023/01/28 14:30:53;;;;;;;1999.90;999.90;;;;;;;3.21;79.75;102930.53;10455496;28;20057;-63
2023/01/28 14:35:56;;;;;;;1999.90;999.90;;;;;;;3.12;79.84;102933.91;10445195;28;20057;-63
2023/01/28 14:40:59;;;;;;;1999.90;999.90;;;;;;;3.01;80.69;102937.25;10446001;28;20094;-63
2023/01/28 14:46:10;;;;;;;1999.90;999.90;;;;;;;3.07;81.73;102950.25;10445253;28;20404;-63
2023/01/28 14:51:36;;;;;;;1999.90;999.90;;;;;;;2.69;81.88;102928.38;10463343;28;20451;-63
2023/01/28 14:56:57;;;;;;;1999.90;999.90;;;;;;;2.66;83.65;102923.16;10463239;28;20056;-63
2023/01/28 15:01:59;;;;;;;1999.90;999.90;;;;;;;2.88;84.62;102934.56;10462956;28;20060;-63
2023/01/28 15:07:22;;;;;;;1999.90;999.90;;;;;;;2.69;83.95;102933.56;10462651;28;20045;-63
2023/01/28 15:12:24;;;;;;;1999.90;999.90;;;;;;;2.48;84.13;102943.66;10445077;28;20053;-63
2023/01/28 15:17:27;;;;;;;1999.90;999.90;;;;;;;2.53;84.79;102942.00;10443993;28;20496;-63
2023/01/28 15:22:30;;;;;;;1999.90;999.90;;;;;;;2.23;84.59;102943.38;10444073;28;20053;-63
2023/01/28 15:27:33;;;;;;;1999.90;999.90;;;;;;;2.34;85.92;102952.13;10443846;28;20064;-63
2023/01/28 15:32:35;;;;;;;1999.90;999.90;;;;;;;2.16;85.01;102955.38;10462146;28;20103;-63
2023/01/28 15:37:37;;;;;;;1999.90;999.90;;;;;;;2.00;85.67;102975.00;10458304;28;20167;-62
2023/01/28 15:42:40;;;;;;;1999.90;999.90;;;;;;;1.94;85.51;102980.06;10460629;28;20412;-62
2023/01/28 15:47:42;;;;;;;1999.90;999.90;;;;;;;1.44;87.87;102981.03;10456878;28;20049;-62
2023/01/28 15:52:45;;;;;;;1999.90;999.90;;;;;;;1.19;89.31;102979.78;10457250;28;20053;-62
2023/01/28 15:57:47;;;;;;;1999.90;999.90;;;;;;;1.38;90.40;102986.13;10459410;28;20056;-62
2023/01/28 16:02:51;;;;;;;1999.90;999.90;;;;;;;1.32;91.39;102991.19;10460555;28;20111;-62
2023/01/28 16:07:55;;;;;;;1999.90;999.90;;;;;;;1.07;91.24;102987.31;10419827;28;20041;-61
2023/01/28 16:13:09;;;;;;;1999.90;999.90;;;;;;;1.08;92.88;102971.88;10403850;28;20064;-61
2023/01/28 16:18:42;;;;;;;1999.90;999.90;;;;;;;0.77;93.99;102969.59;10440631;28;20522;-63
2023/01/28 16:23:51;;;;;;;1999.90;999.90;;;;;;;0.44;94.91;102971.56;10438317;28;20057;-62
2023/01/28 16:28:53;;;;;;;1999.90;999.90;;;;;;;0.62;95.23;102990.81;10459259;28;20107;-62
2023/01/28 16:33:56;;;;;;;1999.90;999.90;;;;;;;0.41;94.58;102997.28;10458692;28;20059;-61
2023/01/28 16:38:58;;;;;;;1999.90;999.90;;;;;;;0.34;95.18;102978.25;10457361;28;20045;-62
2023/01/28 16:44:04;;;;;;;1999.90;999.90;;;;;;;-0.04;96.91;102995.47;10457424;28;20131;-62
2023/01/28 16:49:06;;;;;;;1999.90;999.90;;;;;;;-0.19;100.00;103006.28;10458692;28;20103;-61
2023/01/28 16:54:14;;;;;;;1999.90;999.90;;;;;;;-0.23;100.00;103002.78;10457405;28;20052;-62
2023/01/28 16:59:16;;;;;;;1999.90;999.90;;;;;;;-0.30;100.00;103000.91;10455470;28;20053;-62
2023/01/28 17:04:19;;;;;;;1999.90;999.90;;;;;;;-0.34;100.00;102991.38;10456470;28;20079;-62
2023/01/28 17:09:22;;;;;;;1999.90;999.90;;;;;;;-0.30;100.00;102989.72;10457921;28;20049;-61
2023/01/28 17:14:24;;;;;;;1999.90;999.90;;;;;;;-0.28;100.00;103000.94;10456057;28;20554;-62
2023/01/28 17:19:26;;;;;;;1999.90;999.90;;;;;;;-0.09;100.00;102997.06;10455843;28;20099;-62
2023/01/28 17:24:29;;;;;;;1999.90;999.90;;;;;;;0.11;100.00;103007.81;10455490;28;20057;-61
2023/01/28 17:29:31;;;;;;;1999.90;999.90;;;;;;;0.46;99.06;102992.22;10456687;28;20057;-62
2023/01/28 17:34:34;;;;;;;1999.90;999.90;;;;;;;0.45;98.99;102990.47;10455739;28;20099;-61
2023/01/28 17:39:36;;;;;;;1999.90;999.90;;;;;;;0.36;100.00;102999.75;10438836;28;20053;-62
2023/01/28 17:44:38;;;;;;;1999.90;999.90;;;;;;;0.51;100.00;103008.66;10456014;28;20048;-62
2023/01/28 17:49:41;;;;;;;1999.90;999.90;;;;;;;0.69;100.00;103000.38;10456814;28;20056;-63
2023/01/28 17:54:43;;;;;;;1999.90;999.90;;;;;;;0.38;100.00;103016.97;10455339;28;20064;-63
2023/01/28 17:59:45;;;;;;;1999.90;999.90;;;;;;;0.52;100.00;103020.69;10456129;28;20527;-63
2023/01/28 18:04:48;;;;;;;1999.90;999.90;;;;;;;0.66;100.00;103019.25;10455412;28;20419;-63
2023/01/28 18:09:51;;;;;;;1999.90;999.90;;;;;;;0.77;100.00;103022.03;10460003;28;20053;-63
2023/01/28 18:14:56;;;;;;;1999.90;999.90;;;;;;;0.88;99.69;103030.84;10457066;28;20083;-62
2023/01/28 18:19:58;;;;;;;1999.90;999.90;;;;;;;0.62;100.00;103038.06;10461551;28;20057;-63
2023/01/28 18:25:01;;;;;;;1999.90;999.90;;;;;;;0.70;100.00;103035.66;10463724;28;20061;-63
2023/01/28 18:30:04;;;;;;;1999.90;999.90;;;;;;;0.71;100.00;103053.75;10459968;28;20061;-63
2023/01/28 18:35:06;;;;;;;1999.90;999.90;;;;;;;0.66;100.00;103041.59;10462773;28;20455;-63
2023/01/28 18:40:10;;;;;;;1999.90;999.90;;;;;;;0.52;100.00;103049.03;10435299;28;20053;-63
2023/01/28 18:45:12;;;;;;;1999.90;999.90;;;;;;;0.97;100.00;103055.09;10462723;28;20060;-62
2023/01/28 18:50:15;;;;;;;1999.90;999.90;;;;;;;0.66;100.00;103065.66;10445729;28;20084;-62
2023/01/28 18:55:20;;;;;;;1999.90;999.90;;;;;;;0.83;100.00;103057.41;10463413;28;20060;-62
2023/01/28 19:00:22;;;;;;;1999.90;999.90;;;;;;;0.49;100.00;103067.03;10463029;28;20049;-62
2023/01/28 19:05:24;;;;;;;1999.90;999.90;;;;;;;0.68;100.00;103045.94;10461651;28;20110;-62
2023/01/28 19:10:27;;;;;;;1999.90;999.90;;;;;;;0.86;100.00;103037.69;10462692;28;20099;-63
2023/01/28 19:15:29;;;;;;;1999.90;999.90;;;;;;;0.97;100.00;103053.34;10462482;28;20083;-63
2023/01/28 19:20:32;;;;;;;1999.90;999.90;;;;;;;0.88;100.00;103059.22;10460875;28;20063;-63
2023/01/28 19:25:39;;;;;;;1999.90;999.90;;;;;;;0.86;100.00;103067.78;10462029;28;20106;-63
2023/01/28 19:30:43;;;;;;;1999.90;999.90;;;;;;;0.91;100.00;103061.88;10459982;28;20060;-63
2023/01/28 19:35:45;;;;;;;1999.90;999.90;;;;;;;1.09;100.00;103063.03;10460481;28;20060;-63
2023/01/28 19:40:47;;;;;;;1999.90;999.90;;;;;;;1.16;100.00;103053.69;10460898;28;20443;-63
2023/01/28 19:46:01;;;;;;;1999.90;999.90;;;;;;;0.98;100.00;103049.94;10462053;28;20049;-63
2023/01/28 19:51:08;;;;;;;1999.90;999.90;;;;;;;0.81;100.00;103059.94;10460009;28;20141;-62
2023/01/28 19:56:13;;;;;;;1999.90;999.90;;;;;;;0.97;100.00;103057.66;10461138;28;20059;-62
2023/01/28 20:01:18;;;;;;;1999.90;999.90;;;;;;;0.60;100.00;103057.78;10461022;28;20061;-62
2023/01/28 20:06:22;;;;;;;1999.90;999.90;;;;;;;0.81;100.00;103048.75;10443245;28;20049;-63
2023/01/28 20:11:25;;;;;;;1999.90;999.90;;;;;;;1.03;100.00;103048.31;10458546;28;20492;-63
2023/01/28 20:16:32;;;;;;;1999.90;999.90;;;;;;;1.26;100.00;103042.69;10460150;28;20102;-63
2023/01/28 20:21:35;;;;;;;1999.90;999.90;;;;;;;0.93;100.00;103049.84;10458065;28;20445;-62
2023/01/28 20:26:39;;;;;;;1999.90;999.90;;;;;;;0.99;100.00;103048.22;10458953;28;20060;-62
2023/01/28 20:31:44;;;;;;;1999.90;999.90;;;;;;;0.84;100.00;103041.97;10442088;28;20057;-63
2023/01/28 20:36:52;;;;;;;1999.90;999.90;;;;;;;1.00;100.00;103045.69;10459351;28;20053;-62
2023/01/28 20:41:55;;;;;;;1999.90;999.90;;;;;;;1.15;100.00;103034.78;10459093;28;20056;-63
2023/01/28 20:47:01;;;;;;;1999.90;999.90;;;;;;;1.10;100.00;103011.47;10458834;28;20060;-63
2023/01/28 20:52:04;;;;;;;1999.90;999.90;;;;;;;1.11;100.00;103005.47;10458074;28;20511;-63
2023/01/28 20:57:06;;;;;;;1999.90;999.90;;;;;;;1.05;99.61;103005.34;10458538;28;20045;-63
2023/01/28 21:02:10;;;;;;;1999.90;999.90;;;;;;;0.94;100.00;103004.28;10458317;28;20099;-63
2023/01/28 21:07:13;;;;;;;1999.90;999.90;;;;;;;0.93;100.00;103013.75;10457604;28;20531;-63
2023/01/28 21:12:15;;;;;;;1999.90;999.90;;;;;;;1.18;100.00;103006.44;10456779;28;20053;-63
2023/01/28 21:17:17;;;;;;;1999.90;999.90;;;;;;;1.17;99.62;102996.09;10457723;28;20470;-63
2023/01/28 21:22:20;;;;;;;1999.90;999.90;;;;;;;1.26;98.40;102999.72;10457535;28;20049;-63
2023/01/28 21:27:22;;;;;;;1999.90;999.90;;;;;;;1.14;97.21;102999.47;10457087;28;20045;-63
2023/01/28 21:32:24;;;;;;;1999.90;999.90;;;;;;;1.30;95.87;102996.31;10457339;28;20049;-63
2023/01/28 21:37:28;;;;;;;1999.90;999.90;;;;;;;1.20;96.72;102993.56;10456581;28;20056;-62
2023/01/28 21:42:31;;;;;;;1999.90;999.90;;;;;;;1.11;98.47;103002.91;10456405;28;20057;-63
2023/01/28 21:47:35;;;;;;;1999.90;999.90;;;;;;;1.18;97.87;103011.63;10456994;28;20053;-63
2023/01/28 21:52:37;;;;;;;1999.90;999.90;;;;;;;1.21;95.96;103006.50;10456323;28;20053;-62
2023/01/28 21:57:39;;;;;;;1999.90;999.90;;;;;;;1.23;95.72;103002.22;10456830;28;20103;-62
2023/01/28 22:02:41;;;;;;;1999.90;999.90;;;;;;;1.15;94.16;103008.97;10456080;28;20488;-62
2023/01/28 22:07:44;;;;;;;1999.90;999.90;;;;;;;1.22;93.93;103008.22;10456718;28;20131;-62
2023/01/28 22:12:46;;;;;;;1999.90;999.90;;;;;;;1.37;93.43;103002.44;10455900;28;20451;-63
2023/01/28 22:17:49;;;;;;;1999.90;999.90;;;;;;;1.32;93.64;103000.66;10455798;28;20489;-62
2023/01/28 22:22:51;;;;;;;1999.90;999.90;;;;;;;1.32;93.58;103011.84;10456268;28;20052;-62
2023/01/28 22:27:53;;;;;;;1999.90;999.90;;;;;;;1.57;93.13;103005.34;10456490;28;20045;-63
2023/01/28 22:32:55;;;;;;;1999.90;999.90;;;;;;;1.60;94.38;103000.25;10455476;28;20424;-63
2023/01/28 22:37:58;;;;;;;1999.90;999.90;;;;;;;1.25;98.13;103000.53;10456005;28;20057;-63
2023/01/28 22:43:00;;;;;;;1999.90;999.90;;;;;;;1.44;99.00;102999.13;10445457;23;20056;-62
2023/01/28 22:48:03;;;;;;;1999.90;999.90;;;;;;;1.40;100.00;103002.50;10420413;28;20123;-62
2023/01/28 22:53:05;;;;;;;1999.90;999.90;;;;;;;1.32;98.71;102990.34;10455988;28;20451;-62
2023/01/28 22:58:08;;;;;;;1999.90;999.90;;;;;;;1.23;97.46;102980.72;10463250;28;20049;-63
2023/01/28 23:03:10;;;;;;;1999.90;999.90;;;;;;;1.45;96.29;102967.31;10461213;28;20057;-63
2023/01/28 23:08:12;;;;;;;1999.90;999.90;;;;;;;1.26;95.60;102954.94;10443565;28;20458;-63
2023/01/28 23:13:16;;;;;;;1999.90;999.90;;;;;;;1.26;96.46;102945.50;10461501;28;20049;-62
2023/01/28 23:29:02;;;;;;;1999.90;999.90;;;;;;;0.76;100.00;102944.63;10462534;28;20107;-62
2023/01/28 23:34:06;;;;;;;1999.90;999.90;;;;;;;0.75;100.00;102943.78;10461139;28;20053;-62
2023/01/28 23:39:08;;;;;;;1999.90;999.90;;;;;;;0.49;100.00;102945.91;10460579;28;20056;-62
2023/01/28 23:44:10;;;;;;;1999.90;999.90;;;;;;;0.67;100.00;102946.25;10457960;28;20049;-63
2023/01/28 23:49:13;;;;;;;1999.90;999.90;;;;;;;0.63;100.00;102951.31;10459463;28;20416;-62
2023/01/28 23:54:16;;;;;;;1999.90;999.90;;;;;;;0.62;98.38;102942.69;10461071;28;20052;-63
2023/01/28 23:59:18;;;;;;;1999.90;999.90;;;;;;;0.64;97.51;102942.72;10458902;28;20622;-63
